Waynetown, Indiana
Current Conditions -  °F | °C
As of 4:54 AM on Thursday 18 Dec 2014 (Local Time) from KLAF Reporting Station
Overcast Overcast  
Wind Chill: 24°   Ceiling: 2100
Heat Index: 24°   Visibility: 10mi
Dew Point: 17°   Wind: 3mph
Humidity: 75%   Direction: 270°W
Pressure: 30.29"   Gusts: NA
Location:  40.09°N, 87.06°W
Report Text: KLAF 180954Z AUTO 27003KT 10SM OVC021 M04/M08 A3029 RMK AO2 SLP266 T10441083 TSNO
Loading
Personal Weather Stations






























Interactive Weather Map New forecast layout! Learn more

10-Day Weather Forecast

Advertisements
Track Severe Weather on mobile